Time;durP1;ratioP1;P1;durP2;ratioP2;P2;SDS_P1;SDS_P2;PMS_P1;PMS_P2;Temp;Humidity;BMP_temperature;BMP_pressure;BME280_temperature;BME280_humidity;BME280_pressure;Samples;Min_cycle;Max_cycle;Signal;HPM_P1;HPM_P2
2022/08/16 00:01:25;;;;;;;13.18;12.15;;;22.30;99.90;;;;;;5010099;28;20263;-73
2022/08/16 00:03:53;;;;;;;13.23;12.15;;;22.40;99.90;;;;;;5010334;28;20209;-74
2022/08/16 00:06:20;;;;;;;12.18;11.25;;;22.40;99.90;;;;;;5010257;28;20248;-74
2022/08/16 00:08:47;;;;;;;12.57;11.40;;;22.50;99.90;;;;;;5010463;28;20206;-74
2022/08/16 00:11:14;;;;;;;13.65;12.55;;;22.50;99.90;;;;;;5009899;28;20209;-75
2022/08/16 00:13:43;;;;;;;13.95;12.40;;;22.50;99.90;;;;;;5010173;28;20209;-75
2022/08/16 00:16:10;;;;;;;12.93;11.70;;;22.40;99.90;;;;;;5010055;28;20237;-75
2022/08/16 00:18:37;;;;;;;11.90;11.00;;;22.40;99.90;;;;;;5010266;28;20210;-75
2022/08/16 00:21:07;;;;;;;11.90;10.95;;;22.40;99.90;;;;;;5008631;28;20685;-75
2022/08/16 00:23:34;;;;;;;12.00;10.93;;;22.30;99.90;;;;;;5009799;28;20292;-75
2022/08/16 00:26:01;;;;;;;13.15;12.05;;;22.10;99.90;;;;;;5009370;28;20573;-75
2022/08/16 00:28:27;;;;;;;13.32;12.15;;;21.90;99.90;;;;;;5010124;28;20217;-74
2022/08/16 00:30:56;;;;;;;13.38;12.48;;;21.80;99.90;;;;;;5009663;28;20214;-74
2022/08/16 00:33:22;;;;;;;13.88;12.77;;;21.90;99.90;;;;;;4991727;28;20206;-74
2022/08/16 00:35:49;;;;;;;13.70;12.55;;;22.00;99.90;;;;;;4990259;28;20242;-75
2022/08/16 00:38:16;;;;;;;11.90;11.00;;;22.00;99.90;;;;;;4990189;28;20214;-74
2022/08/16 00:40:46;;;;;;;13.15;12.05;;;22.10;99.90;;;;;;4989995;28;20204;-75
2022/08/16 00:43:16;;;;;;;12.55;11.50;;;22.10;99.90;;;;;;4996649;28;20225;-74
2022/08/16 00:45:50;;;;;;;12.35;11.20;;;22.20;99.90;;;;;;5004098;28;20209;-74
2022/08/16 00:48:18;;;;;;;12.90;11.90;;;22.20;99.90;;;;;;5009350;28;20254;-74
2022/08/16 00:50:46;;;;;;;13.35;12.15;;;22.30;99.90;;;;;;5009623;28;20237;-74
2022/08/16 00:53:15;;;;;;;13.25;12.07;;;22.30;99.90;;;;;;5008696;28;20209;-74
2022/08/16 00:55:46;;;;;;;12.98;11.85;;;22.30;99.90;;;;;;5009115;28;20233;-74
2022/08/16 00:58:14;;;;;;;12.70;11.63;;;22.40;99.90;;;;;;5008989;28;20197;-74
2022/08/16 01:00:41;;;;;;;12.45;11.35;;;22.40;99.90;;;;;;5009142;28;20296;-74
2022/08/16 01:03:12;;;;;;;13.00;12.00;;;22.40;99.90;;;;;;5006906;28;20213;-74
2022/08/16 01:05:40;;;;;;;14.43;11.47;;;22.40;99.90;;;;;;4989909;28;20214;-75
2022/08/16 01:08:09;;;;;;;13.32;12.23;;;22.40;99.90;;;;;;4989611;28;20217;-76
2022/08/16 01:10:37;;;;;;;13.35;12.25;;;22.40;99.90;;;;;;4989580;28;20858;-75
2022/08/16 01:13:07;;;;;;;12.75;11.80;;;22.50;99.90;;;;;;4990092;28;20231;-75
2022/08/16 01:15:35;;;;;;;13.63;12.48;;;22.40;99.90;;;;;;5009008;28;20215;-73
2022/08/16 01:18:04;;;;;;;13.38;12.38;;;22.40;99.90;;;;;;5008908;28;20205;-73
2022/08/16 01:20:35;;;;;;;13.52;12.18;;;22.30;99.90;;;;;;5009000;28;20205;-72
2022/08/16 01:23:11;;;;;;;12.57;11.68;;;22.30;99.90;;;;;;5008325;28;20193;-72
2022/08/16 01:25:42;;;;;;;12.98;11.98;;;22.30;99.90;;;;;;5009046;28;20193;-74
2022/08/16 01:28:13;;;;;;;13.80;12.60;;;22.30;99.90;;;;;;5008901;28;20210;-74
2022/08/16 01:30:45;;;;;;;14.50;13.23;;;22.20;99.90;;;;;;5008869;28;20200;-76
2022/08/16 01:33:12;;;;;;;14.18;12.98;;;22.20;99.90;;;;;;5006853;28;20198;-76
2022/08/16 01:35:44;;;;;;;13.95;12.68;;;22.10;99.90;;;;;;4989039;28;20206;-76
2022/08/16 01:38:17;;;;;;;14.27;13.07;;;22.10;99.90;;;;;;4989300;28;20198;-75
2022/08/16 01:40:46;;;;;;;14.20;12.95;;;22.10;99.90;;;;;;4989079;28;20198;-76
2022/08/16 01:43:13;;;;;;;15.07;13.68;;;22.10;99.90;;;;;;4990462;28;20385;-76
2022/08/16 01:45:40;;;;;;;14.52;12.98;;;22.10;99.90;;;;;;5008424;28;20213;-74
2022/08/16 01:48:07;;;;;;;13.90;12.70;;;22.10;99.90;;;;;;5008282;28;20209;-74
2022/08/16 01:50:35;;;;;;;14.90;13.60;;;22.10;99.90;;;;;;5008249;28;20691;-76
2022/08/16 01:53:01;;;;;;;14.38;13.07;;;22.10;99.90;;;;;;5007588;28;20347;-76
2022/08/16 01:55:29;;;;;;;14.73;13.35;;;22.10;99.90;;;;;;5007554;28;20201;-75
2022/08/16 01:57:57;;;;;;;14.32;13.13;;;22.10;99.90;;;;;;5008568;28;20308;-75
2022/08/16 02:00:25;;;;;;;13.88;12.68;;;22.10;99.90;;;;;;5007832;28;20237;-74
2022/08/16 02:02:52;;;;;;;13.60;12.40;;;22.10;99.90;;;;;;5008420;28;20316;-74
2022/08/16 02:05:18;;;;;;;13.88;12.75;;;22.00;99.90;;;;;;5007556;28;20209;-74
2022/08/16 02:07:45;;;;;;;13.82;12.63;;;22.10;99.90;;;;;;5008302;28;20236;-74
2022/08/16 02:10:15;;;;;;;14.10;12.73;;;22.10;99.90;;;;;;5007772;28;20217;-75
2022/08/16 02:12:43;;;;;;;14.35;13.10;;;22.10;99.90;;;;;;5007877;28;20286;-75
2022/08/16 02:15:12;;;;;;;14.23;13.05;;;22.00;99.90;;;;;;5007910;28;20213;-75
2022/08/16 02:17:40;;;;;;;14.00;12.80;;;22.00;99.90;;;;;;5008092;28;20244;-74
2022/08/16 02:20:08;;;;;;;13.93;12.60;;;22.00;99.90;;;;;;5007607;28;20243;-73
2022/08/16 02:22:35;;;;;;;13.38;12.38;;;22.00;99.90;;;;;;5008161;28;20217;-71
2022/08/16 02:25:05;;;;;;;13.95;12.85;;;22.00;99.90;;;;;;5005841;28;20577;-72
2022/08/16 02:27:32;;;;;;;14.45;13.25;;;21.90;99.90;;;;;;4998677;28;20206;-71
2022/08/16 02:29:59;;;;;;;15.13;13.77;;;21.90;99.90;;;;;;5002518;28;20216;-71
2022/08/16 02:32:28;;;;;;;15.35;14.05;;;21.90;99.90;;;;;;5003374;28;20210;-71
2022/08/16 02:34:55;;;;;;;14.95;13.75;;;21.90;99.90;;;;;;5003044;28;20205;-72
2022/08/16 02:37:22;;;;;;;16.00;14.55;;;21.90;99.90;;;;;;4986554;28;20236;-72
2022/08/16 02:39:49;;;;;;;15.57;14.00;;;21.90;99.90;;;;;;4986638;28;20206;-72
2022/08/16 02:42:18;;;;;;;15.45;13.90;;;21.90;99.90;;;;;;4986472;28;20225;-72
2022/08/16 02:44:44;;;;;;;15.55;14.30;;;21.90;99.90;;;;;;5008496;28;20754;-72
2022/08/16 02:47:11;;;;;;;15.73;14.45;;;21.80;99.90;;;;;;5010121;28;20209;-72
2022/08/16 02:49:39;;;;;;;16.45;14.90;;;21.80;99.90;;;;;;5008616;28;20201;-72
2022/08/16 02:52:06;;;;;;;15.53;14.33;;;21.80;99.90;;;;;;4994935;28;20229;-72
2022/08/16 02:54:33;;;;;;;15.52;14.27;;;21.80;99.90;;;;;;5009735;28;20236;-71
2022/08/16 02:57:00;;;;;;;15.70;14.40;;;21.80;99.90;;;;;;5009151;28;20295;-71
2022/08/16 02:59:27;;;;;;;15.70;14.43;;;21.80;99.90;;;;;;4991112;28;20202;-71
2022/08/16 03:01:55;;;;;;;15.68;14.35;;;21.80;99.90;;;;;;4996520;28;20193;-70
2022/08/16 03:04:22;;;;;;;16.70;15.40;;;21.80;99.90;;;;;;5009137;28;20296;-70
2022/08/16 03:06:51;;;;;;;15.52;14.10;;;21.80;99.90;;;;;;5005216;28;20235;-70
2022/08/16 03:09:17;;;;;;;15.10;13.88;;;21.80;99.90;;;;;;4994577;28;20249;-71
2022/08/16 03:11:45;;;;;;;15.23;13.88;;;21.80;99.90;;;;;;5010277;28;20214;-71
2022/08/16 03:14:12;;;;;;;15.53;13.70;;;21.80;99.90;;;;;;5009387;28;20210;-71
2022/08/16 03:16:39;;;;;;;15.25;14.05;;;21.80;99.90;;;;;;5009931;28;20615;-71
2022/08/16 03:19:07;;;;;;;15.55;14.23;;;21.80;99.90;;;;;;5009691;28;20215;-71
2022/08/16 03:21:34;;;;;;;16.65;15.02;;;21.80;99.90;;;;;;5010055;28;20212;-71
2022/08/16 03:24:03;;;;;;;15.75;14.35;;;21.80;99.90;;;;;;5009659;28;20220;-71
2022/08/16 03:26:30;;;;;;;16.77;15.48;;;21.80;99.90;;;;;;5010942;28;20224;-71
2022/08/16 03:28:57;;;;;;;15.60;14.27;;;21.80;99.90;;;;;;5010936;28;20206;-71
2022/08/16 03:31:24;;;;;;;16.10;14.80;;;21.80;99.90;;;;;;5011002;28;20205;-71
2022/08/16 03:33:51;;;;;;;16.23;14.65;;;21.70;99.90;;;;;;5010902;28;20202;-71
2022/08/16 03:36:18;;;;;;;16.48;15.00;;;21.70;99.90;;;;;;5010497;28;20208;-71
2022/08/16 03:38:44;;;;;;;16.00;14.77;;;21.70;99.90;;;;;;5010837;28;20217;-71
2022/08/16 03:41:13;;;;;;;16.73;14.97;;;21.70;99.90;;;;;;5010461;28;20213;-70
2022/08/16 03:43:40;;;;;;;15.95;14.50;;;21.70;99.90;;;;;;5010526;28;20719;-71
2022/08/16 03:46:09;;;;;;;16.33;14.87;;;21.70;99.90;;;;;;5010569;28;20300;-71
2022/08/16 03:48:38;;;;;;;16.00;14.70;;;21.70;99.90;;;;;;5010643;28;20245;-71
2022/08/16 03:51:09;;;;;;;16.80;15.30;;;21.70;99.90;;;;;;5010193;28;20665;-71
2022/08/16 03:53:36;;;;;;;16.67;15.07;;;21.70;99.90;;;;;;5010564;28;20202;-71
2022/08/16 03:56:12;;;;;;;17.03;15.43;;;21.70;99.90;;;;;;5009830;28;20212;-71
2022/08/16 03:58:39;;;;;;;16.48;15.18;;;21.70;99.90;;;;;;5010332;28;20221;-70
2022/08/16 04:01:10;;;;;;;15.55;14.25;;;21.70;99.90;;;;;;5009790;28;20252;-71
2022/08/16 04:03:37;;;;;;;16.20;14.85;;;21.70;99.90;;;;;;5010489;28;20216;-71
2022/08/16 04:06:10;;;;;;;16.13;14.83;;;21.60;99.90;;;;;;5010018;28;20229;-71
2022/08/16 04:08:36;;;;;;;15.87;14.53;;;21.60;99.90;;;;;;5010191;28;20220;-71
2022/08/16 04:11:07;;;;;;;16.25;14.95;;;21.70;99.90;;;;;;5009704;28;20292;-71
2022/08/16 04:13:35;;;;;;;15.98;14.60;;;21.60;99.90;;;;;;5009946;28;20687;-71
2022/08/16 04:16:11;;;;;;;16.33;14.90;;;21.60;99.90;;;;;;5009875;28;20220;-71
2022/08/16 04:18:41;;;;;;;15.13;13.87;;;21.60;99.90;;;;;;5009674;28;20907;-70
2022/08/16 04:21:08;;;;;;;17.20;15.63;;;21.70;99.90;;;;;;5009693;28;20205;-70
2022/08/16 04:23:36;;;;;;;16.08;14.88;;;21.60;99.90;;;;;;5009971;28;20573;-71
2022/08/16 04:26:09;;;;;;;16.13;14.80;;;21.60;99.90;;;;;;5009777;28;20201;-71
2022/08/16 04:28:37;;;;;;;15.93;14.73;;;21.70;99.90;;;;;;5009817;28;20205;-70
2022/08/16 04:31:07;;;;;;;16.42;15.07;;;21.60;99.90;;;;;;5009684;28;20216;-71
2022/08/16 04:33:34;;;;;;;16.92;15.52;;;21.60;99.90;;;;;;5009627;28;20202;-70
2022/08/16 04:36:01;;;;;;;16.83;15.33;;;21.60;99.90;;;;;;5009509;28;20209;-70
2022/08/16 04:38:27;;;;;;;16.30;15.02;;;21.60;99.90;;;;;;5009511;28;20237;-70
2022/08/16 04:40:55;;;;;;;15.80;14.40;;;21.60;99.90;;;;;;5009538;28;20206;-70
2022/08/16 04:43:22;;;;;;;16.73;15.23;;;21.60;99.90;;;;;;5009492;28;20220;-70
2022/08/16 04:45:51;;;;;;;16.53;15.23;;;21.60;99.90;;;;;;5009635;28;20212;-71
2022/08/16 04:48:17;;;;;;;16.33;14.93;;;21.70;99.90;;;;;;5009395;28;20589;-70
2022/08/16 04:50:44;;;;;;;16.35;15.05;;;21.60;99.90;;;;;;5009755;28;20295;-70
2022/08/16 04:53:11;;;;;;;16.13;14.80;;;21.70;99.90;;;;;;5009407;28;20661;-70
2022/08/16 04:55:38;;;;;;;17.13;15.70;;;21.70;99.90;;;;;;5009548;28;20211;-70
2022/08/16 04:58:06;;;;;;;16.88;15.57;;;21.70;99.90;;;;;;5009238;28;20320;-70
2022/08/16 05:00:34;;;;;;;17.27;15.87;;;21.80;99.90;;;;;;5009187;28;20239;-70
2022/08/16 05:03:04;;;;;;;16.70;15.30;;;21.80;99.90;;;;;;5009386;28;20581;-70
2022/08/16 05:05:31;;;;;;;16.90;15.50;;;21.80;99.90;;;;;;5009442;28;20233;-70
2022/08/16 05:07:58;;;;;;;17.27;15.87;;;21.80;99.90;;;;;;5005883;28;20214;-70
2022/08/16 05:10:25;;;;;;;17.40;15.85;;;21.80;99.90;;;;;;5009107;28;20209;-70
2022/08/16 05:12:52;;;;;;;18.13;16.42;;;21.80;99.90;;;;;;5009150;28;20209;-70
2022/08/16 05:15:19;;;;;;;16.83;15.43;;;21.80;99.90;;;;;;5008729;28;20574;-70
2022/08/16 05:17:45;;;;;;;17.25;15.65;;;21.80;99.90;;;;;;5008978;28;20233;-70
2022/08/16 05:20:13;;;;;;;18.00;16.50;;;21.80;99.90;;;;;;5008905;28;20221;-70
2022/08/16 05:22:41;;;;;;;17.98;16.48;;;21.90;99.90;;;;;;5008876;28;20559;-70
2022/08/16 05:25:10;;;;;;;18.42;16.83;;;21.90;99.90;;;;;;5008589;28;20248;-70
2022/08/16 05:27:36;;;;;;;18.25;16.55;;;21.80;99.90;;;;;;5008769;28;20541;-70
2022/08/16 05:30:05;;;;;;;18.30;16.73;;;21.80;99.90;;;;;;5008586;28;20589;-71
2022/08/16 05:32:32;;;;;;;17.73;16.07;;;21.80;99.90;;;;;;5008741;28;20375;-70
2022/08/16 05:34:59;;;;;;;17.77;16.23;;;21.80;99.90;;;;;;5008776;28;20217;-70
2022/08/16 05:37:27;;;;;;;18.83;17.17;;;21.80;99.90;;;;;;5008634;28;20251;-70
2022/08/16 05:39:53;;;;;;;18.35;16.75;;;21.90;99.90;;;;;;5008265;28;20613;-70
2022/08/16 05:42:20;;;;;;;17.70;16.20;;;21.90;99.90;;;;;;5007949;28;20657;-70
2022/08/16 05:44:47;;;;;;;18.37;16.73;;;21.90;99.90;;;;;;5008617;28;20210;-70
2022/08/16 05:47:14;;;;;;;18.70;17.15;;;21.80;99.90;;;;;;5008340;28;20657;-70
2022/08/16 05:49:40;;;;;;;17.43;15.97;;;21.90;99.90;;;;;;5008543;28;20213;-70
2022/08/16 05:52:08;;;;;;;17.80;16.30;;;21.90;99.90;;;;;;5008226;28;20796;-70
2022/08/16 05:54:36;;;;;;;18.03;16.67;;;21.90;99.90;;;;;;5008094;28;20665;-70
2022/08/16 05:57:04;;;;;;;18.23;16.60;;;21.90;99.90;;;;;;5007919;28;20675;-70
2022/08/16 05:59:31;;;;;;;17.50;16.00;;;21.90;99.90;;;;;;5007977;28;20205;-70
2022/08/16 06:01:58;;;;;;;19.02;17.48;;;21.90;99.90;;;;;;5008354;28;20198;-71
2022/08/16 06:04:25;;;;;;;18.00;16.60;;;21.90;99.90;;;;;;5008293;28;20202;-70
2022/08/16 06:06:52;;;;;;;17.38;15.98;;;21.90;99.90;;;;;;5008240;28;20233;-70
2022/08/16 06:09:18;;;;;;;17.98;16.35;;;22.00;99.90;;;;;;5008100;28;20236;-70
2022/08/16 06:11:47;;;;;;;18.58;17.08;;;22.00;99.90;;;;;;5008223;28;20216;-70
2022/08/16 06:14:14;;;;;;;20.08;17.98;;;21.90;99.90;;;;;;5008042;28;20214;-70
2022/08/16 06:16:41;;;;;;;17.88;16.35;;;22.00;99.90;;;;;;5008190;28;20220;-70
2022/08/16 06:19:08;;;;;;;17.37;15.87;;;22.00;99.90;;;;;;5007677;28;20251;-70
2022/08/16 06:21:35;;;;;;;18.80;17.30;;;22.00;99.90;;;;;;5008150;28;20209;-70
2022/08/16 06:24:02;;;;;;;18.77;17.07;;;22.10;99.90;;;;;;5007351;28;20562;-70
2022/08/16 06:26:29;;;;;;;19.13;17.47;;;22.10;99.90;;;;;;5007795;28;20292;-70
2022/08/16 06:28:57;;;;;;;18.83;16.90;;;22.10;99.90;;;;;;5008246;28;20224;-70
2022/08/16 06:31:24;;;;;;;18.90;17.08;;;22.10;99.90;;;;;;5008060;28;20209;-70
2022/08/16 06:33:51;;;;;;;19.17;17.55;;;22.10;99.90;;;;;;5007569;28;20205;-71
2022/08/16 06:36:18;;;;;;;17.48;15.98;;;22.10;99.90;;;;;;5007668;28;20520;-70
2022/08/16 06:38:45;;;;;;;17.60;16.13;;;22.20;99.90;;;;;;5008034;28;20229;-70
2022/08/16 06:41:12;;;;;;;18.17;16.77;;;22.20;99.90;;;;;;5007361;28;20205;-70
2022/08/16 06:43:39;;;;;;;18.63;17.10;;;22.20;99.90;;;;;;5008106;28;20219;-70
2022/08/16 06:46:25;;;;;;;19.03;16.97;;;22.30;99.90;;;;;;5007799;28;20209;-70
2022/08/16 06:48:52;;;;;;;19.75;18.13;;;22.30;99.90;;;;;;5008088;28;20209;-70
2022/08/16 06:51:19;;;;;;;18.77;17.23;;;22.30;99.90;;;;;;5007948;28;20647;-70
2022/08/16 06:53:46;;;;;;;18.05;16.55;;;22.30;99.90;;;;;;5007854;28;20205;-70
2022/08/16 06:56:13;;;;;;;18.67;17.00;;;22.30;99.90;;;;;;5007203;28;20209;-70
2022/08/16 06:58:39;;;;;;;19.08;17.58;;;22.30;99.90;;;;;;5007646;28;20275;-70
2022/08/16 07:01:06;;;;;;;18.45;16.95;;;22.30;99.90;;;;;;5007060;28;20241;-70
2022/08/16 07:03:34;;;;;;;19.73;18.02;;;22.40;99.90;;;;;;5007474;28;20625;-70
2022/08/16 07:06:01;;;;;;;17.65;16.25;;;22.40;99.90;;;;;;5007352;28;20225;-70
2022/08/16 07:08:29;;;;;;;18.50;16.80;;;22.40;99.90;;;;;;5007652;28;20202;-70
2022/08/16 07:10:57;;;;;;;18.70;17.10;;;22.40;99.90;;;;;;5007103;28;20671;-70
2022/08/16 07:13:25;;;;;;;18.85;17.05;;;22.40;99.90;;;;;;5007557;28;20231;-70
2022/08/16 07:15:52;;;;;;;18.23;16.63;;;22.40;99.90;;;;;;5006998;28;20695;-70
2022/08/16 07:18:20;;;;;;;18.38;16.77;;;22.40;99.90;;;;;;5006708;28;20244;-70
2022/08/16 07:20:50;;;;;;;19.10;17.50;;;22.50;99.90;;;;;;5007185;28;20233;-70
2022/08/16 07:23:17;;;;;;;18.73;17.13;;;22.50;99.90;;;;;;5007147;28;20284;-70
2022/08/16 07:25:44;;;;;;;19.58;17.67;;;22.60;99.90;;;;;;5007061;28;20209;-70
2022/08/16 07:28:13;;;;;;;18.88;17.02;;;22.60;99.90;;;;;;5007195;28;20274;-70
2022/08/16 07:30:41;;;;;;;18.92;17.42;;;22.60;99.90;;;;;;5008836;28;20212;-71
2022/08/16 07:33:09;;;;;;;20.13;17.20;;;22.70;99.90;;;;;;5010791;28;20570;-70
2022/08/16 07:35:37;;;;;;;19.48;17.88;;;22.70;99.90;;;;;;5010764;28;20209;-70
2022/08/16 07:38:06;;;;;;;17.95;16.45;;;22.80;99.90;;;;;;5010504;28;20229;-70
2022/08/16 07:40:33;;;;;;;18.63;17.05;;;22.80;99.90;;;;;;5010679;28;20879;-70
2022/08/16 07:43:00;;;;;;;18.65;17.05;;;22.80;99.90;;;;;;5010817;28;20209;-71
2022/08/16 07:45:27;;;;;;;19.48;17.65;;;22.90;99.90;;;;;;5010532;28;20214;-70
2022/08/16 07:47:54;;;;;;;18.55;16.85;;;22.90;99.90;;;;;;5010325;28;20209;-70
2022/08/16 07:50:21;;;;;;;18.67;16.88;;;23.00;99.90;;;;;;5010544;28;20275;-70
2022/08/16 07:52:48;;;;;;;18.58;16.88;;;23.00;99.90;;;;;;5010368;28;20567;-70
2022/08/16 07:55:18;;;;;;;17.48;16.17;;;23.10;99.90;;;;;;5009880;28;20684;-70
2022/08/16 07:57:46;;;;;;;17.48;16.08;;;23.10;99.90;;;;;;5010361;28;20216;-70
2022/08/16 08:00:13;;;;;;;18.70;17.17;;;23.20;99.90;;;;;;5009999;28;20242;-70
2022/08/16 08:02:40;;;;;;;18.80;17.30;;;23.20;99.90;;;;;;5010311;28;20209;-71
2022/08/16 08:05:07;;;;;;;19.60;18.00;;;23.20;99.90;;;;;;5009937;28;20208;-70
2022/08/16 08:07:34;;;;;;;17.83;16.42;;;23.30;99.90;;;;;;5009988;28;20680;-71
2022/08/16 08:10:01;;;;;;;18.80;17.10;;;23.30;99.90;;;;;;5010165;28;20206;-70
2022/08/16 08:12:30;;;;;;;17.95;16.35;;;23.30;99.90;;;;;;5009982;28;20213;-70
2022/08/16 08:14:57;;;;;;;18.75;16.98;;;23.40;99.90;;;;;;5009559;28;20613;-71
2022/08/16 08:17:24;;;;;;;17.80;16.40;;;23.40;99.90;;;;;;5010107;28;20216;-70
2022/08/16 08:19:50;;;;;;;18.80;17.10;;;23.50;99.90;;;;;;5009849;28;20229;-70
2022/08/16 08:22:17;;;;;;;18.23;16.60;;;23.50;99.90;;;;;;5009975;28;20224;-71
2022/08/16 08:24:45;;;;;;;18.20;16.50;;;23.60;99.90;;;;;;5009801;28;20764;-70
2022/08/16 08:27:12;;;;;;;17.38;15.95;;;23.60;99.90;;;;;;5009257;28;20210;-71
2022/08/16 08:29:41;;;;;;;16.92;15.38;;;23.70;99.90;;;;;;5009557;28;20213;-70
2022/08/16 08:32:09;;;;;;;17.80;16.40;;;23.70;99.90;;;;;;5009797;28;20209;-70
2022/08/16 08:34:36;;;;;;;16.52;15.23;;;23.80;99.90;;;;;;5009520;28;20217;-70
2022/08/16 08:37:02;;;;;;;17.35;15.80;;;23.80;99.90;;;;;;5009588;28;20234;-70
2022/08/16 08:39:29;;;;;;;17.02;15.57;;;23.90;99.90;;;;;;5009423;28;20324;-71
2022/08/16 08:41:56;;;;;;;17.35;15.88;;;23.90;99.90;;;;;;5008413;28;20557;-70
2022/08/16 08:44:23;;;;;;;17.70;15.95;;;24.00;99.90;;;;;;5009343;28;20216;-71
2022/08/16 08:46:56;;;;;;;17.02;15.52;;;24.00;99.90;;;;;;5009398;28;20209;-70
2022/08/16 08:49:22;;;;;;;16.13;14.82;;;24.10;99.90;;;;;;5009437;28;20205;-70
2022/08/16 08:51:49;;;;;;;17.05;15.13;;;24.10;99.90;;;;;;5009374;28;20219;-70
2022/08/16 08:54:16;;;;;;;16.25;14.65;;;24.20;99.90;;;;;;5009190;28;20571;-70
2022/08/16 08:56:43;;;;;;;15.57;14.30;;;24.30;99.90;;;;;;5009187;28;20207;-70
2022/08/16 08:59:12;;;;;;;14.40;13.10;;;24.30;99.90;;;;;;5009058;28;20233;-71
2022/08/16 09:01:39;;;;;;;14.48;13.25;;;24.40;99.90;;;;;;5008875;28;20241;-70
2022/08/16 09:04:08;;;;;;;14.18;12.88;;;24.40;99.90;;;;;;5009271;28;20201;-70
2022/08/16 09:06:35;;;;;;;14.85;13.38;;;24.50;99.90;;;;;;5009155;28;20329;-70
2022/08/16 09:09:03;;;;;;;15.13;13.63;;;24.60;99.90;;;;;;5009026;28;20672;-70
2022/08/16 09:11:30;;;;;;;13.57;12.38;;;24.60;99.90;;;;;;5008726;28;20583;-70
2022/08/16 09:13:57;;;;;;;14.18;12.98;;;24.70;99.90;;;;;;5009590;28;20259;-70
2022/08/16 09:16:24;;;;;;;14.15;12.82;;;24.70;99.90;;;;;;5008873;28;20722;-70
2022/08/16 09:18:51;;;;;;;12.63;11.43;;;24.80;99.90;;;;;;5009039;28;20245;-70
2022/08/16 09:21:19;;;;;;;13.52;12.48;;;24.80;99.90;;;;;;5009143;28;20213;-70
2022/08/16 09:23:46;;;;;;;12.35;11.38;;;24.90;99.90;;;;;;5008768;28;20676;-70
2022/08/16 09:26:16;;;;;;;13.55;12.27;;;25.00;99.90;;;;;;5008323;28;20233;-70
2022/08/16 09:28:44;;;;;;;13.23;11.95;;;25.00;99.90;;;;;;5008555;28;20572;-70
2022/08/16 09:31:11;;;;;;;12.77;11.85;;;25.00;99.90;;;;;;5008373;28;20225;-70
2022/08/16 09:33:38;;;;;;;11.65;10.65;;;25.10;99.90;;;;;;5008541;28;20696;-71
2022/08/16 09:36:09;;;;;;;11.52;10.63;;;25.20;99.90;;;;;;5008330;28;20226;-70
2022/08/16 09:38:38;;;;;;;12.60;11.55;;;25.20;99.90;;;;;;5008508;28;20228;-70
2022/08/16 09:41:11;;;;;;;11.52;10.50;;;25.30;99.90;;;;;;5008112;28;20233;-70
2022/08/16 09:43:38;;;;;;;12.48;10.38;;;25.30;99.90;;;;;;5008604;28;20210;-70
2022/08/16 09:46:11;;;;;;;11.02;9.98;;;25.40;99.90;;;;;;5008242;28;20209;-70
2022/08/16 09:48:40;;;;;;;12.10;11.02;;;25.40;99.90;;;;;;5008061;28;20683;-71
2022/08/16 09:51:07;;;;;;;11.38;10.35;;;25.40;99.90;;;;;;5008296;28;20209;-70
2022/08/16 09:53:34;;;;;;;11.60;10.60;;;25.50;99.90;;;;;;5008238;28;20213;-70
2022/08/16 09:56:15;;;;;;;10.95;9.93;;;25.50;99.90;;;;;;5008045;28;20205;-70
2022/08/16 09:58:42;;;;;;;11.25;10.13;;;25.60;99.90;;;;;;5008405;28;20225;-70
2022/08/16 10:01:11;;;;;;;10.20;9.40;;;25.70;99.90;;;;;;5007518;28;20244;-70
2022/08/16 10:03:39;;;;;;;9.85;9.05;;;25.80;99.90;;;;;;5008078;28;20210;-70
2022/08/16 10:06:08;;;;;;;12.57;9.52;;;25.80;99.90;;;;;;5007984;28;20248;-70
2022/08/16 10:08:35;;;;;;;9.02;8.43;;;25.80;99.90;;;;;;5008005;28;20670;-71
2022/08/16 10:13:55;;;;;;;12.32;8.52;;;25.90;99.90;;;;;;5007880;28;20244;-70
2022/08/16 10:16:22;;;;;;;9.60;8.77;;;26.00;99.90;;;;;;5007745;28;20637;-70
2022/08/16 10:18:49;;;;;;;9.45;8.55;;;26.10;99.90;;;;;;5007847;28;20616;-70
2022/08/16 10:21:16;;;;;;;10.15;9.13;;;26.00;99.90;;;;;;5007997;28;20215;-70
2022/08/16 10:23:43;;;;;;;9.40;8.65;;;26.00;99.90;;;;;;5008179;28;20209;-71
2022/08/16 10:26:12;;;;;;;9.07;8.38;;;26.10;99.90;;;;;;5007041;28;20209;-70
2022/08/16 10:28:39;;;;;;;9.60;8.70;;;26.20;99.90;;;;;;5007828;28;20292;-71
2022/08/16 10:31:11;;;;;;;8.27;7.57;;;26.20;99.90;;;;;;5007654;28;20308;-70
2022/08/16 10:33:39;;;;;;;9.23;8.35;;;26.30;99.90;;;;;;5007853;28;20272;-70
2022/08/16 10:36:11;;;;;;;10.65;8.95;;;26.40;99.90;;;;;;5007625;28;20252;-70
2022/08/16 10:38:39;;;;;;;8.02;7.35;;;26.50;99.90;;;;;;5007799;28;20210;-71
2022/08/16 10:41:10;;;;;;;7.78;7.18;;;26.60;99.90;;;;;;5007709;28;20211;-71
2022/08/16 10:43:40;;;;;;;8.13;7.43;;;26.50;99.90;;;;;;5007531;28;20210;-70
2022/08/16 10:46:12;;;;;;;8.68;7.88;;;26.50;99.90;;;;;;5007549;28;20205;-71
2022/08/16 10:48:44;;;;;;;8.52;7.78;;;26.40;99.90;;;;;;5007777;28;20236;-70
2022/08/16 10:51:12;;;;;;;8.63;7.82;;;26.50;99.90;;;;;;5007730;28;20211;-71
2022/08/16 10:53:39;;;;;;;8.68;7.97;;;26.40;99.90;;;;;;5007940;28;20209;-71
2022/08/16 10:56:12;;;;;;;8.07;7.47;;;26.40;99.90;;;;;;5007641;28;20210;-71
2022/08/16 10:58:41;;;;;;;8.45;7.68;;;26.40;99.90;;;;;;5007866;28;20231;-71
2022/08/16 11:01:11;;;;;;;8.02;7.35;;;26.50;99.90;;;;;;5007388;28;20339;-71
2022/08/16 11:03:38;;;;;;;8.20;7.50;;;26.50;99.90;;;;;;5007772;28;20201;-71
2022/08/16 11:06:11;;;;;;;8.40;7.80;;;26.60;99.90;;;;;;5010416;28;20232;-71
2022/08/16 11:08:38;;;;;;;8.45;7.68;;;26.60;99.90;;;;;;5011648;28;20598;-71
2022/08/16 11:11:13;;;;;;;8.70;7.85;;;26.70;99.90;;;;;;5011342;28;20210;-71
2022/08/16 11:13:42;;;;;;;8.25;7.65;;;26.80;99.90;;;;;;5011715;28;20219;-71
2022/08/16 11:16:10;;;;;;;8.20;7.50;;;26.80;99.90;;;;;;5011067;28;20275;-71
2022/08/16 11:18:36;;;;;;;9.10;7.97;;;27.00;99.90;;;;;;5011621;28;20223;-71
2022/08/16 11:21:13;;;;;;;8.65;8.00;;;27.00;99.90;;;;;;5011317;28;20222;-71
2022/08/16 11:23:40;;;;;;;8.55;7.95;;;27.00;99.90;;;;;;5011541;28;20213;-70
2022/08/16 11:26:10;;;;;;;7.35;6.75;;;27.10;99.90;;;;;;5011035;28;20232;-71
2022/08/16 11:28:37;;;;;;;8.75;7.40;;;27.20;99.90;;;;;;5011108;28;20237;-71
2022/08/16 11:31:12;;;;;;;8.13;7.43;;;27.30;99.90;;;;;;5010829;28;20237;-71
2022/08/16 11:33:39;;;;;;;7.95;7.18;;;27.40;99.90;;;;;;5010940;28;20204;-71
2022/08/16 11:36:09;;;;;;;7.88;6.97;;;27.40;99.90;;;;;;5010734;28;20206;-71
2022/08/16 11:38:36;;;;;;;8.25;6.93;;;27.40;99.90;;;;;;5010888;28;20206;-71
2022/08/16 11:41:11;;;;;;;7.78;7.07;;;27.40;99.90;;;;;;5010418;28;20237;-71
2022/08/16 11:43:40;;;;;;;7.32;6.75;;;27.40;99.90;;;;;;5010847;28;20681;-71
2022/08/16 11:46:16;;;;;;;10.07;6.90;;;27.30;99.90;;;;;;5010234;28;20587;-71
2022/08/16 11:48:44;;;;;;;7.80;7.00;;;27.30;99.90;;;;;;5010432;28;20217;-71
2022/08/16 11:51:11;;;;;;;6.88;6.45;;;27.20;99.90;;;;;;5010738;28;20214;-72
2022/08/16 11:53:38;;;;;;;8.27;7.60;;;27.10;99.90;;;;;;5010476;28;20220;-71
2022/08/16 11:56:11;;;;;;;7.85;7.15;;;27.10;99.90;;;;;;5010243;28;20404;-71
2022/08/16 11:58:38;;;;;;;7.32;6.82;;;27.10;99.90;;;;;;5010646;28;20301;-71
2022/08/16 12:01:14;;;;;;;7.82;7.22;;;27.20;99.90;;;;;;5009457;28;20253;-71
2022/08/16 12:03:42;;;;;;;6.65;6.25;;;27.30;99.90;;;;;;5010534;28;20205;-71
2022/08/16 12:06:15;;;;;;;7.65;6.32;;;27.40;99.90;;;;;;5010165;28;20229;-71
2022/08/16 12:08:44;;;;;;;7.20;6.47;;;27.50;99.90;;;;;;5010395;28;20213;-71
2022/08/16 12:11:11;;;;;;;6.55;6.10;;;27.60;99.90;;;;;;5010016;28;20206;-72
2022/08/16 12:13:39;;;;;;;6.70;6.10;;;27.70;99.90;;;;;;5010424;28;20205;-71
2022/08/16 12:16:09;;;;;;;6.57;5.95;;;27.70;99.90;;;;;;5009939;28;20218;-71
2022/08/16 12:18:37;;;;;;;6.22;5.82;;;27.70;99.90;;;;;;5010277;28;20218;-71
2022/08/16 12:21:12;;;;;;;6.13;5.70;;;27.70;99.90;;;;;;5010065;28;20261;-71
2022/08/16 12:23:40;;;;;;;6.30;5.78;;;27.80;99.90;;;;;;5010197;28;20298;-71
2022/08/16 12:26:09;;;;;;;6.38;5.85;;;27.80;99.90;;;;;;5009673;28;20292;-71
2022/08/16 12:28:36;;;;;;;6.68;6.20;;;27.80;99.90;;;;;;5009750;28;20661;-71
2022/08/16 12:31:13;;;;;;;6.78;6.10;;;27.80;99.90;;;;;;5009884;28;20300;-71
2022/08/16 12:33:42;;;;;;;5.65;5.35;;;27.80;99.90;;;;;;5010086;28;20288;-72
2022/08/16 12:36:15;;;;;;;6.65;5.65;;;27.70;99.90;;;;;;5009362;28;20601;-71
2022/08/16 12:38:42;;;;;;;6.82;5.85;;;27.70;99.90;;;;;;5010134;28;20635;-71